URWI

Details ICAO URWI (ESL)
Name ELISTA
Region Russia
Timezone Europe/Moscow (UTC+3.0)
Plans Departing 6
Arriving 7
Stats Elevation 501 ft / 153 m (AMSL)
Location 46.374210° 44.331387°
Runways 2
Magnetic Variation 8.218° E
Sunrise 2017-12-15 04:40:35 UTC / 2017-12-15 07:40:35 Local
Sunset 2017-12-15 13:17:45 UTC / 2017-12-15 16:17:45 Local
Advertisement - Login to hide

Runways

ID Width Length Bearing (true) Bearing (mag) Surface Threshold Offset Overrun Length
09 148 ft / 45 m 6,913 ft / 2,107 m 97.79° 89.57° Asphalt 0 ft / 0 m 0 ft / 0 m
09L 280 ft / 85 m 7,535 ft / 2,297 m 97.48° 89.26° Dirt 0 ft / 0 m 0 ft / 0 m
27 148 ft / 45 m 6,913 ft / 2,107 m 277.81° 269.59° Asphalt 0 ft / 0 m 160 ft / 49 m
27R 280 ft / 85 m 7,535 ft / 2,297 m 277.50° 269.28° Dirt 0 ft / 0 m 0 ft / 0 m

Map

Weather


0- 5 10 15 20 25 30 35+ Temperature / ° C

Clouds and Precipitation
Forecast for 2017-12-15 06:00 UTC. Updated an hour ago

Ground ~20,000 ft ~40,000 ft Winds

METAR

URWI 150630Z 13010MPS 1100 1000S R09/1100D -DZ BR OVC002 01/01 Q1020 TEMPO 0300 DZ FG OVC001 RMK QBB080 OBST OBSC

TAF

Not found

Frequencies

Tower 118.30 MHz TWR
Approach 124.20 MHz APP
Warning: Do not use this data for real-world aviation or navigation. No guarantee of current accuracy is given.